Time;durP1;ratioP1;P1;durP2;ratioP2;P2;SDS_P1;SDS_P2;PMS_P1;PMS_P2;Temp;Humidity;BMP_temperature;BMP_pressure;BME280_temperature;BME280_humidity;BME280_pressure;Samples;Min_cycle;Max_cycle;Signal;HPM_P1;HPM_P2
2021/06/01 00:01:30;;;;;;;17.17;9.10;;;;;;;6.20;71.37;99357.44;3886609;90;21174;-81
2021/06/01 00:07:31;;;;;;;18.52;10.03;;;;;;;6.19;70.89;99350.98;3888254;90;21089;-80
2021/06/01 00:13:35;;;;;;;19.15;9.45;;;;;;;6.05;71.43;99350.50;3808270;92;21668;-80
2021/06/01 00:19:36;;;;;;;13.43;8.05;;;;;;;5.91;71.82;99350.81;3806777;92;21170;-80
2021/06/01 00:25:37;;;;;;;15.63;8.43;;;;;;;6.20;72.52;99349.28;3820101;91;21151;-83
2021/06/01 00:31:47;;;;;;;16.30;8.45;;;;;;;6.40;72.64;99356.55;3830369;91;21122;-79
2021/06/01 00:37:52;;;;;;;13.90;8.43;;;;;;;6.42;72.12;99356.80;3810122;91;21229;-80
2021/06/01 00:44:14;;;;;;;;;;;;;;;;;;;;;
2021/06/01 00:50:12;;;;;;;14.83;8.13;;;;;;;5.94;71.92;99348.78;3830618;91;21162;-80
2021/06/01 00:56:17;;;;;;;14.30;9.15;;;;;;;5.87;72.82;99346.39;3828209;91;21207;-80
2021/06/01 01:02:32;;;;;;;14.35;8.43;;;;;;;5.83;72.45;99354.41;3829609;91;21163;-80
2021/06/01 01:09:00;;;;;;;13.58;7.65;;;;;;;5.79;72.89;99345.87;3830395;91;21082;-82
2021/06/01 01:15:16;;;;;;;16.10;8.55;;;;;;;5.75;73.69;99353.89;3829191;91;21205;-79
2021/06/01 01:21:58;;;;;;;18.77;8.60;;;;;;;5.94;73.43;99354.22;3829443;91;21781;-80
2021/06/01 01:28:20;;;;;;;15.50;7.62;;;;;;;5.68;73.34;99346.86;3795110;92;21203;-80
2021/06/01 01:34:18;;;;;;;13.80;8.53;;;;;;;5.71;73.20;99347.55;3790758;91;21413;-80
2021/06/01 01:40:40;;;;;;;16.95;8.78;;;;;;;5.50;73.11;99345.41;3793933;92;21115;-80
2021/06/01 01:48:57;;;;;;;15.53;8.35;;;;;;;5.62;74.74;99350.11;3795571;92;21166;-80
2021/06/01 01:53:32;;;;;;;15.88;8.50;;;;;;;5.76;74.46;99353.34;3794518;92;21172;-81
2021/06/01 01:59:44;;;;;;;14.28;7.50;;;;;;;5.69;73.41;99347.64;3785897;92;21099;-81
2021/06/01 02:05:56;;;;;;;14.23;7.72;;;;;;;5.46;74.33;99351.30;3795983;91;21146;-82
2021/06/01 02:12:20;;;;;;;13.90;8.20;;;;;;;5.70;74.71;99347.89;3793904;92;21115;-81
2021/06/01 02:18:35;;;;;;;15.90;7.60;;;;;;;5.88;74.84;99352.84;3790582;92;21202;-84
2021/06/01 02:24:58;;;;;;;16.70;8.53;;;;;;;5.68;73.98;99351.49;3860994;89;21163;-81
2021/06/01 02:31:16;;;;;;;11.95;6.95;;;;;;;5.56;74.30;99354.94;3843761;90;21097;-80
2021/06/01 02:37:31;;;;;;;14.45;7.78;;;;;;;5.41;74.09;99347.97;3867016;89;21736;-79
2021/06/01 02:43:37;;;;;;;13.30;7.72;;;;;;;5.35;74.86;99345.23;3882579;90;21173;-81
2021/06/01 02:49:48;;;;;;;15.75;7.70;;;;;;;5.35;74.77;99340.61;3824559;90;21855;-80
2021/06/01 02:55:56;;;;;;;14.98;8.80;;;;;;;5.31;75.46;99339.66;3881747;89;21668;-80
2021/06/01 03:02:03;;;;;;;22.62;8.25;;;;;;;5.54;75.22;99335.49;3819879;90;21136;-80
2021/06/01 03:08:26;;;;;;;16.32;8.65;;;;;;;5.38;74.95;99346.73;3967117;87;21052;-80
2021/06/01 03:14:41;;;;;;;11.75;7.53;;;;;;;5.47;75.72;99343.92;3990242;88;21120;-80
2021/06/01 03:21:02;;;;;;;16.10;6.87;;;;;;;5.63;75.87;99345.70;3979600;88;21080;-79
2021/06/01 03:27:19;;;;;;;17.57;7.87;;;;;;;5.70;75.81;99349.25;3969722;86;21753;-80
2021/06/01 03:33:35;;;;;;;17.15;8.55;;;;;;;5.82;75.63;99342.52;3965624;88;21073;-80
2021/06/01 03:39:46;;;;;;;17.00;8.83;;;;;;;5.94;75.76;99339.27;3962255;88;21073;-80
2021/06/01 03:45:48;;;;;;;15.48;7.87;;;;;;;6.01;75.67;99337.37;3959219;88;21794;-80
2021/06/01 03:51:53;;;;;;;15.40;7.75;;;;;;;6.10;75.60;99340.77;3959635;88;21136;-80
2021/06/01 03:58:06;;;;;;;19.92;9.03;;;;;;;6.15;75.48;99336.48;3935318;88;21184;-81
2021/06/01 04:04:12;;;;;;;17.75;8.73;;;;;;;6.28;75.63;99332.63;3944090;88;21152;-81
2021/06/01 04:10:39;;;;;;;;;;;;;;;6.36;75.61;99335.27;3972071;87;21112;-80
2021/06/01 04:16:41;;;;;;;15.05;8.43;;;;;;;6.47;76.07;99337.55;3963183;88;20190;-80
2021/06/01 04:22:44;;;;;;;14.23;8.28;;;;;;;6.60;75.80;99341.84;3960168;88;21546;-80
2021/06/01 04:28:45;;;;;;;12.50;7.37;;;;;;;6.68;75.82;99345.81;3938657;89;21669;-82
2021/06/01 04:34:47;;;;;;;14.63;8.35;;;;;;;6.83;75.91;99342.39;3930903;89;21073;-81
2021/06/01 04:40:48;;;;;;;13.70;7.87;;;;;;;7.06;75.85;99352.25;3935448;89;21672;-80
2021/06/01 04:46:53;;;;;;;14.65;8.63;;;;;;;7.26;75.97;99343.92;3936064;89;21117;-81
2021/06/01 04:52:55;;;;;;;12.50;7.15;;;;;;;7.45;76.08;99345.46;3936329;89;21089;-81
2021/06/01 04:58:59;;;;;;;12.82;7.78;;;;;;;7.69;75.97;99347.28;3937220;89;21612;-81
2021/06/01 05:05:09;;;;;;;14.43;7.65;;;;;;;7.91;75.94;99350.25;3932664;89;21203;-81
2021/06/01 05:11:11;;;;;;;15.50;8.18;;;;;;;8.13;75.75;99354.33;3938811;89;21700;-80
2021/06/01 05:17:14;;;;;;;13.62;7.85;;;;;;;8.33;75.80;99351.95;3934406;89;21152;-80
2021/06/01 05:23:43;;;;;;;;;;;;;;;;;;;;;
2021/06/01 05:29:24;;;;;;;16.85;8.43;;;;;;;8.93;75.34;99361.61;3930838;89;21120;-80
2021/06/01 05:35:29;;;;;;;15.58;9.25;;;;;;;9.26;75.25;99357.31;3936208;89;21617;-83
2021/06/01 05:41:30;;;;;;;16.82;9.70;;;;;;;9.44;74.67;99349.51;3935027;89;21544;-81
2021/06/01 05:47:32;;;;;;;21.23;9.40;;;;;;;9.55;74.78;99357.35;3931898;89;21178;-80
2021/06/01 05:53:42;;;;;;;17.27;11.08;;;;;;;9.61;74.74;99359.21;3905873;89;21122;-79
2021/06/01 05:59:50;;;;;;;19.35;10.30;;;;;;;9.70;74.62;99355.11;3935907;88;21177;-81
2021/06/01 06:05:53;;;;;;;20.10;11.20;;;;;;;9.96;74.77;99364.80;3938134;89;21192;-81
2021/06/01 06:11:55;;;;;;;17.62;10.85;;;;;;;10.19;74.50;99363.52;3932652;89;21160;-80
2021/06/01 06:18:16;;;;;;;22.65;12.45;;;;;;;10.42;74.50;99364.31;3939229;89;21207;-82
2021/06/01 06:24:19;;;;;;;21.77;11.63;;;;;;;10.77;74.46;99363.55;3932330;89;21109;-81
2021/06/01 06:30:27;;;;;;;19.50;11.53;;;;;;;11.18;73.95;99370.84;3935157;89;21212;-81
2021/06/01 06:36:30;;;;;;;21.37;12.45;;;;;;;11.51;73.79;99358.55;3920835;89;21711;-81
2021/06/01 06:42:33;;;;;;;25.17;11.88;;;;;;;11.85;72.87;99358.83;3933214;89;21196;-82
2021/06/01 06:48:39;;;;;;;22.65;12.25;;;;;;;12.10;72.65;99361.84;3932717;89;21697;-81
2021/06/01 06:54:42;;;;;;;13.60;9.08;;;;;;;12.38;72.83;99356.06;3934287;89;21244;-82
2021/06/01 07:00:44;;;;;;;15.20;8.08;;;;;;;12.98;72.68;99354.40;3931455;89;21125;-82
2021/06/01 07:06:47;;;;;;;16.10;8.93;;;;;;;13.75;72.31;99350.14;3913923;89;21137;-82
2021/06/01 07:12:51;;;;;;;15.58;8.05;;;;;;;14.53;71.46;99349.00;3933978;89;21370;-82
2021/06/01 07:18:54;;;;;;;11.53;7.20;;;;;;;15.15;69.46;99350.14;3935435;89;21101;-81
2021/06/01 07:24:55;;;;;;;14.38;7.22;;;;;;;15.72;67.92;99339.77;3937701;88;21165;-83
2021/06/01 07:31:07;;;;;;;10.88;5.92;;;;;;;16.37;66.81;99339.22;3962257;88;21637;-83
2021/06/01 07:37:10;;;;;;;13.08;7.40;;;;;;;17.05;65.26;99338.91;3956771;88;21145;-80
2021/06/01 07:43:11;;;;;;;10.65;6.30;;;;;;;17.28;62.50;99339.06;3966250;88;21612;-83
2021/06/01 07:49:12;;;;;;;7.67;5.12;;;;;;;17.21;62.28;99329.47;3961202;88;21092;-82
2021/06/01 07:55:16;;;;;;;7.15;5.00;;;;;;;17.59;61.98;99331.63;3960325;88;21802;-82
2021/06/01 08:01:18;;;;;;;5.72;4.30;;;;;;;18.05;61.46;99329.07;3853290;89;21129;-82
2021/06/01 08:07:20;;;;;;;6.80;3.75;;;;;;;18.20;60.02;99331.23;3790738;92;21634;-83
2021/06/01 08:13:22;;;;;;;7.17;4.25;;;;;;;17.99;58.05;99332.13;3961134;88;21092;-81
2021/06/01 08:19:32;;;;;;;7.58;3.58;;;;;;;17.82;54.43;99322.83;3960840;88;21088;-82
2021/06/01 08:25:32;;;;;;;3.47;2.08;;;;;;;17.78;55.65;99324.08;3959725;88;21136;-82
2021/06/01 08:31:34;;;;;;;5.90;2.85;;;;;;;17.78;52.74;99327.64;3961475;88;21184;-81
2021/06/01 08:37:36;;;;;;;5.37;2.65;;;;;;;18.22;53.90;99316.36;3960313;88;21710;-81
2021/06/01 08:43:37;;;;;;;5.50;2.10;;;;;;;18.02;47.15;99308.54;3963314;88;21392;-82
2021/06/01 08:50:04;;;;;;;16.45;2.80;;;;;;;18.26;49.20;99314.93;3968219;88;21090;-82
2021/06/01 08:56:10;;;;;;;6.58;3.15;;;;;;;18.54;43.89;99303.44;3936109;88;21620;-82
2021/06/01 09:02:11;;;;;;;5.12;2.67;;;;;;;18.43;45.61;99303.58;3962758;88;21725;-84
2021/06/01 09:08:34;;;;;;;6.30;4.30;;;;;;;17.99;46.74;99311.35;3962995;88;21076;-84
2021/06/01 09:21:19;;;;;;;;;;;;;;;;;;;;;
2021/06/01 09:33:08;;;;;;;7.40;3.50;;;;;;;17.24;48.74;99301.74;3963922;88;21143;-81
2021/06/01 09:39:14;;;;;;;9.53;3.98;;;;;;;17.32;49.48;99307.22;3966660;88;21159;-83
2021/06/01 09:45:22;;;;;;;6.15;3.85;;;;;;;17.34;49.14;99300.67;3943884;88;21523;-83
2021/06/01 09:51:34;;;;;;;8.80;3.55;;;;;;;17.15;48.95;99300.66;3964514;87;21044;-82
2021/06/01 09:57:42;;;;;;;4.50;3.37;;;;;;;17.37;48.21;99291.55;3851067;91;21182;-82
2021/06/01 10:03:51;;;;;;;6.75;3.50;;;;;;;17.32;47.50;99291.38;3852667;91;21120;-86
2021/06/01 10:09:53;;;;;;;3.95;2.70;;;;;;;17.31;47.55;99289.81;3835595;90;21138;-82
2021/06/01 10:16:12;;;;;;;4.45;2.58;;;;;;;17.68;48.73;99269.64;3970465;88;21160;-86
2021/06/01 10:22:14;;;;;;;8.15;3.52;;;;;;;18.67;46.98;99266.37;3969382;88;21167;-83
2021/06/01 10:28:25;;;;;;;10.28;3.42;;;;;;;18.59;41.62;99271.05;3975688;87;21151;-83
2021/06/01 10:34:27;;;;;;;6.03;2.80;;;;;;;18.33;40.56;99271.86;3983903;88;21810;-82
2021/06/01 10:53:28;;;;;;;3.72;2.55;;;;;;;17.96;43.12;99266.48;3957836;88;21092;-81
2021/06/01 11:06:06;;;;;;;5.95;2.75;;;;;;;18.76;36.26;99252.56;3959930;88;21104;-81
2021/06/01 11:12:25;;;;;;;5.58;2.20;;;;;;;19.19;36.06;99255.52;3960921;88;21132;-82
2021/06/01 11:18:39;;;;;;;6.67;2.15;;;;;;;19.26;35.06;99256.77;3954612;88;21165;-82
2021/06/01 11:29:00;;;;;;;5.47;2.20;;;;;;;19.56;37.75;99258.58;3849694;91;21156;-82
2021/06/01 11:37:56;;;;;;;5.25;1.80;;;;;;;19.86;36.78;99254.92;3869941;90;21122;-82
2021/06/01 11:43:52;;;;;;;4.58;1.95;;;;;;;19.71;37.25;99247.34;3965677;88;21108;-82
2021/06/01 12:03:05;;;;;;;3.45;1.77;;;;;;;21.36;36.95;99239.83;3964159;88;21127;-82
2021/06/01 12:21:53;;;;;;;6.33;2.20;;;;;;;21.41;36.72;99219.01;3968475;88;21044;-83
2021/06/01 12:28:08;;;;;;;4.50;2.00;;;;;;;20.70;36.18;99216.00;3837656;91;21478;-82
2021/06/01 12:34:01;;;;;;;5.22;1.75;;;;;;;20.26;36.73;99225.06;3862351;88;138424;-80
2021/06/01 12:46:55;;;;;;;3.55;1.77;;;;;;;19.92;36.82;99220.48;3869153;90;22055;-82
2021/06/01 13:12:26;;;;;;;2.65;1.67;;;;;;;19.31;36.36;99213.89;3884793;89;21680;-81
2021/06/01 13:38:15;;;;;;;6.42;1.77;;;;;;;19.11;35.95;99206.11;3954871;88;21127;-82
2021/06/01 13:56:42;;;;;;;4.37;2.00;;;;;;;19.21;36.64;99203.74;3877212;90;21166;-82
2021/06/01 14:22:00;;;;;;;6.30;1.87;;;;;;;19.59;33.85;99193.85;3880719;90;21707;-83
2021/06/01 15:31:32;;;;;;;5.03;1.90;;;;;;;18.63;32.96;99167.23;3943365;87;21150;-81
2021/06/01 15:50:29;;;;;;;5.00;2.12;;;;;;;18.84;34.02;99159.70;3930422;89;21622;-81
2021/06/01 16:22:42;;;;;;;3.83;2.27;;;;;;;18.20;33.90;99164.98;3826443;91;21091;-83
2021/06/01 17:14:02;;;;;;;6.65;2.10;;;;;;;17.62;35.59;99175.19;3926009;89;21150;-80
2021/06/01 17:20:31;;;;;;;5.50;2.55;;;;;;;17.45;36.01;99185.91;3831091;91;21134;-81
2021/06/01 17:38:49;;;;;;;4.22;1.98;;;;;;;16.86;36.57;99190.95;3879696;90;21135;-81
2021/06/01 17:44:51;;;;;;;3.25;2.33;;;;;;;16.70;37.02;99190.73;3958449;90;22032;-81
2021/06/01 17:50:54;;;;;;;5.05;2.10;;;;;;;16.52;38.24;99194.87;3938618;90;21094;-81
2021/06/01 17:56:57;;;;;;;7.28;2.90;;;;;;;16.26;38.79;99199.59;3919984;88;21062;-81
2021/06/01 18:02:58;;;;;;;9.75;3.80;;;;;;;15.96;39.12;99204.98;3838576;91;21093;-81
2021/06/01 19:51:06;;;;;;;20.87;12.07;;;;;;;12.21;52.69;99307.28;3873564;90;21099;-80
2021/06/01 19:57:11;;;;;;;26.75;13.18;;;;;;;12.11;53.27;99314.81;3879689;90;21461;-80
2021/06/01 20:03:14;;;;;;;29.85;16.42;;;;;;;11.83;54.44;99323.32;3856456;90;21080;-80
2021/06/01 20:09:19;;;;;;;31.97;15.95;;;;;;;11.52;55.12;99318.23;3875227;90;21596;-80
2021/06/01 20:15:26;;;;;;;28.35;15.00;;;;;;;11.29;55.76;99317.55;3878129;90;21115;-81
2021/06/01 20:21:31;;;;;;;33.38;19.05;;;;;;;11.16;56.98;99320.29;3876596;90;21688;-81
2021/06/01 20:27:33;;;;;;;30.75;19.32;;;;;;;11.09;57.59;99322.34;3877242;90;21508;-81
2021/06/01 20:33:39;;;;;;;31.37;17.95;;;;;;;10.96;57.88;99325.88;3880911;90;22059;-81
2021/06/01 20:39:44;;;;;;;27.80;17.35;;;;;;;10.77;58.91;99334.20;3883928;90;21152;-81
2021/06/01 20:45:47;;;;;;;33.40;17.15;;;;;;;10.53;59.29;99333.23;3884035;90;21164;-81
2021/06/01 20:51:51;;;;;;;27.10;14.85;;;;;;;10.36;59.45;99335.10;3885592;90;21179;-80
2021/06/01 20:57:57;;;;;;;28.52;15.08;;;;;;;10.30;60.47;99334.39;3884553;90;21163;-81
2021/06/01 21:04:11;;;;;;;25.97;15.08;;;;;;;10.10;60.33;99336.97;3884550;90;21227;-81
2021/06/01 21:10:22;;;;;;;27.90;14.78;;;;;;;9.94;60.86;99340.34;3884762;90;22129;-80
2021/06/01 21:16:23;;;;;;;30.72;13.65;;;;;;;9.75;61.59;99338.99;3881864;90;21155;-81
2021/06/01 21:22:25;;;;;;;30.43;14.30;;;;;;;9.63;62.16;99341.31;3884062;90;21632;-81
2021/06/01 21:28:32;;;;;;;18.98;12.03;;;;;;;9.54;62.35;99337.42;3883145;90;21162;-83
2021/06/01 21:34:38;;;;;;;25.15;12.68;;;;;;;9.57;63.09;99340.59;3881331;90;21147;-83
2021/06/01 21:40:56;;;;;;;26.57;13.65;;;;;;;9.45;63.54;99338.22;3879387;90;21124;-84
2021/06/01 21:47:05;;;;;;;30.92;14.05;;;;;;;9.37;64.12;99347.41;3881554;90;21075;-82
2021/06/01 21:53:18;;;;;;;27.10;13.05;;;;;;;9.42;64.53;99354.53;3879685;90;21063;-81
2021/06/01 21:59:32;;;;;;;21.62;11.40;;;;;;;9.42;64.78;99354.53;3883725;90;21175;-81
2021/06/01 22:05:44;;;;;;;23.52;13.53;;;;;;;9.42;65.10;99362.16;3879464;90;21239;-81
2021/06/01 22:11:47;;;;;;;27.32;14.85;;;;;;;9.31;64.90;99369.34;3882743;90;21100;-81
2021/06/01 22:17:48;;;;;;;20.23;12.53;;;;;;;9.11;65.27;99376.48;3877974;90;21126;-81
2021/06/01 22:23:57;;;;;;;22.07;14.10;;;;;;;9.07;65.86;99377.75;3880281;90;21207;-82
2021/06/01 22:30:00;;;;;;;24.60;12.25;;;;;;;8.91;65.88;99380.31;3877561;90;21143;-80
2021/06/01 22:36:09;;;;;;;21.52;13.65;;;;;;;8.82;66.68;99375.02;3879588;90;21679;-80
2021/06/01 22:42:11;;;;;;;25.30;14.13;;;;;;;8.75;66.66;99384.41;3875902;90;21239;-80
2021/06/01 22:48:13;;;;;;;29.32;14.78;;;;;;;8.63;67.49;99386.45;3877758;90;21164;-81
2021/06/01 22:54:30;;;;;;;22.98;11.88;;;;;;;8.53;67.33;99388.33;3882732;90;21127;-80
2021/06/01 23:00:26;;;;;;;32.65;14.85;;;;;;;8.39;67.97;99387.97;3872247;90;21679;-80
2021/06/01 23:06:31;;;;;;;28.87;15.00;;;;;;;8.31;67.68;99391.09;3857829;90;21239;-81
2021/06/01 23:12:36;;;;;;;28.10;14.90;;;;;;;8.27;68.26;99390.77;3879644;90;21099;-80
2021/06/01 23:18:39;;;;;;;27.48;16.50;;;;;;;8.09;68.70;99383.45;3881816;90;21087;-81
2021/06/01 23:24:43;;;;;;;21.80;13.28;;;;;;;7.99;68.51;99390.76;3878369;90;21075;-80
2021/06/01 23:30:45;;;;;;;28.00;13.85;;;;;;;8.06;69.41;99388.80;3877853;86;21203;-81
2021/06/01 23:37:06;;;;;;;28.30;14.55;;;;;;;8.18;69.29;99400.44;3887470;90;21083;-80
2021/06/01 23:43:14;;;;;;;29.87;15.07;;;;;;;8.01;69.24;99404.84;3870206;90;21115;-80
2021/06/01 23:55:36;;;;;;;28.67;15.30;;;;;;;7.79;69.72;99410.27;3888094;89;21111;-81
